createdAt,value
2018-06-04T00:02:16.901Z,6.57
2018-06-04T00:04:44.999Z,6.80
2018-06-04T00:07:13.167Z,6.35
2018-06-04T00:09:41.271Z,5.30
2018-06-04T00:12:09.408Z,6.18
2018-06-04T00:14:37.681Z,6.60
2018-06-04T00:17:05.885Z,6.15
2018-06-04T00:19:34.048Z,6.62
2018-06-04T00:22:02.234Z,6.72
2018-06-04T00:24:30.344Z,5.40
2018-06-04T00:26:58.564Z,7.18
2018-06-04T00:29:26.692Z,7.18
2018-06-04T00:31:54.812Z,6.90
2018-06-04T00:34:23.826Z,7.15
2018-06-04T00:36:52.067Z,6.12
2018-06-04T00:39:20.179Z,6.37
2018-06-04T00:41:48.304Z,5.80
2018-06-04T00:44:16.835Z,6.15
2018-06-04T00:46:50.917Z,5.78
2018-06-04T00:49:19.023Z,6.85
2018-06-04T00:51:47.147Z,6.00
2018-06-04T00:54:15.515Z,6.12
2018-06-04T00:56:43.617Z,6.62
2018-06-04T00:59:11.759Z,6.62
2018-06-04T01:01:39.895Z,6.40
2018-06-04T01:04:08.772Z,5.85
2018-06-04T01:06:39.398Z,5.97
2018-06-04T01:09:07.515Z,6.62
2018-06-04T01:11:35.651Z,6.65
2018-06-04T01:14:04.509Z,6.45
2018-06-04T01:16:39.535Z,6.05
2018-06-04T01:19:07.708Z,6.30
2018-06-04T01:21:35.827Z,7.45
2018-06-04T01:24:03.954Z,8.15
2018-06-04T01:26:32.151Z,6.72
2018-06-04T01:29:00.308Z,7.10
2018-06-04T01:31:28.418Z,6.90
2018-06-04T01:33:57.292Z,8.00
2018-06-04T01:36:25.454Z,6.62
2018-06-04T01:38:53.585Z,6.15
2018-06-04T01:41:21.697Z,6.05
2018-06-04T01:43:50.855Z,6.28
2018-06-04T01:46:26.439Z,7.30
2018-06-04T01:48:54.556Z,7.07
2018-06-04T01:51:23.551Z,6.90
2018-06-04T01:53:51.662Z,6.60
2018-06-04T01:56:19.889Z,7.32
2018-06-04T01:58:48.071Z,6.97
2018-06-04T02:01:16.281Z,6.75
2018-06-04T02:03:57.748Z,6.35
2018-06-04T02:06:27.903Z,6.95
2018-06-04T02:08:57.007Z,7.10
2018-06-04T02:11:25.129Z,7.10
2018-06-04T02:13:53.239Z,6.53
2018-06-04T02:16:21.443Z,6.80
2018-06-04T02:18:49.570Z,6.70
2018-06-04T02:21:17.974Z,6.47
2018-06-04T02:23:46.602Z,6.30
2018-06-04T02:26:29.840Z,6.57
2018-06-04T02:28:58.028Z,7.00
2018-06-04T02:31:28.984Z,6.78
2018-06-04T02:33:57.665Z,7.60
2018-06-04T02:36:25.888Z,7.50
2018-06-04T02:38:54.013Z,6.00
2018-06-04T02:41:22.126Z,6.55
2018-06-04T02:43:50.257Z,6.60
2018-06-04T02:46:31.423Z,6.18
2018-06-04T02:49:00.623Z,5.80
2018-06-04T02:51:28.730Z,7.05
2018-06-04T02:53:58.075Z,7.12
2018-06-04T02:56:27.431Z,6.55
2018-06-04T02:58:56.247Z,7.12
2018-06-04T03:01:24.365Z,6.32
2018-06-04T03:03:52.506Z,8.07
2018-06-04T03:06:21.470Z,7.53
2018-06-04T03:08:49.627Z,7.97
2018-06-04T03:11:18.657Z,8.00
2018-06-04T03:13:46.794Z,6.80
2018-06-04T03:16:14.948Z,7.72
2018-06-04T03:18:43.079Z,6.50
2018-06-04T03:21:11.959Z,6.20
2018-06-04T03:23:40.075Z,7.00
2018-06-04T03:26:08.622Z,7.47
2018-06-04T03:28:36.744Z,7.50
2018-06-04T03:31:05.937Z,7.30
2018-06-04T03:33:34.873Z,6.70
2018-06-04T03:36:09.613Z,6.60
2018-06-04T03:38:37.798Z,6.95
2018-06-04T03:41:11.596Z,7.15
2018-06-04T03:43:39.782Z,7.35
2018-06-04T03:46:08.955Z,10.75
2018-06-04T03:48:39.195Z,6.93
2018-06-04T03:51:07.345Z,7.30
2018-06-04T03:53:35.471Z,9.82
2018-06-04T03:56:04.532Z,6.97
2018-06-04T03:58:33.580Z,5.70
2018-06-04T04:01:02.455Z,6.72
2018-06-04T04:03:30.576Z,6.62
2018-06-04T04:05:59.679Z,6.78
2018-06-04T04:08:27.807Z,7.00
2018-06-04T04:10:59.449Z,7.35
2018-06-04T04:13:27.951Z,7.75
2018-06-04T04:15:56.064Z,6.90
2018-06-04T04:18:24.186Z,6.80
2018-06-04T04:20:52.325Z,7.87
2018-06-04T04:23:20.469Z,7.00
2018-06-04T04:25:49.256Z,6.87
2018-06-04T04:28:17.363Z,7.20
2018-06-04T04:30:46.682Z,5.97
2018-06-04T04:33:15.198Z,6.20
2018-06-04T04:35:43.677Z,7.05
2018-06-04T04:38:14.054Z,6.53
2018-06-04T04:40:42.178Z,7.30
2018-06-04T04:43:10.337Z,8.63
2018-06-04T04:45:40.916Z,7.53
2018-06-04T04:48:09.578Z,7.05
2018-06-04T04:50:37.713Z,7.37
2018-06-04T04:53:05.818Z,6.30
2018-06-04T04:55:34.211Z,6.72
2018-06-04T04:58:02.310Z,6.50
2018-06-04T05:00:32.543Z,6.90
2018-06-04T05:03:02.237Z,6.95
2018-06-04T05:05:30.402Z,7.43
2018-06-04T05:08:05.745Z,6.32
2018-06-04T05:10:33.854Z,6.55
2018-06-04T05:13:02.985Z,7.50
2018-06-04T05:15:31.098Z,6.57
2018-06-04T05:18:02.712Z,6.68
2018-06-04T05:20:30.842Z,7.07
2018-06-04T05:22:58.997Z,6.15
2018-06-04T05:25:28.122Z,7.22
2018-06-04T05:27:57.108Z,6.37
2018-06-04T05:30:25.276Z,7.57
2018-06-04T05:32:53.408Z,6.00
2018-06-04T05:35:21.517Z,6.37
2018-06-04T05:37:49.713Z,6.30
2018-06-04T05:40:20.805Z,6.93
2018-06-04T05:42:50.623Z,7.60
2018-06-04T05:45:18.739Z,7.18
2018-06-04T05:47:47.686Z,6.20
2018-06-04T05:50:15.798Z,7.05
2018-06-04T05:52:44.696Z,6.70
2018-06-04T05:55:16.098Z,6.35
2018-06-04T05:57:54.367Z,7.15
2018-06-04T06:00:23.172Z,7.95
2018-06-04T06:02:57.723Z,6.72
2018-06-04T06:05:25.841Z,8.32
2018-06-04T06:07:59.498Z,6.87
2018-06-04T06:10:28.974Z,10.50
2018-06-04T06:12:59.145Z,9.40
2018-06-04T06:15:27.855Z,8.68
2018-06-04T06:17:56.550Z,8.50
2018-06-04T06:20:25.793Z,9.88
2018-06-04T06:22:54.249Z,9.13
2018-06-04T06:25:23.232Z,8.88
2018-06-04T06:27:52.078Z,9.90
2018-06-04T06:30:21.025Z,9.38
2018-06-04T06:32:49.140Z,9.10
2018-06-04T06:35:18.248Z,8.52
2018-06-04T06:37:47.244Z,7.50
2018-06-04T06:40:18.495Z,9.33
2018-06-04T06:42:47.533Z,8.15
2018-06-04T06:45:16.950Z,8.43
2018-06-04T06:47:49.088Z,8.38
2018-06-04T06:50:17.493Z,10.00
2018-06-04T06:52:46.678Z,8.20
2018-06-04T06:55:17.209Z,7.90
2018-06-04T06:57:53.999Z,7.67
2018-06-04T07:00:25.436Z,8.70
2018-06-04T07:02:54.774Z,7.80
2018-06-04T07:05:23.731Z,8.27
2018-06-04T07:07:54.025Z,7.80
2018-06-04T07:10:22.535Z,8.13
2018-06-04T07:12:51.814Z,7.80
2018-06-04T07:15:21.565Z,8.33
2018-06-04T07:17:50.536Z,8.10
2018-06-04T07:20:18.809Z,8.60
2018-06-04T07:22:50.349Z,8.30
2018-06-04T07:25:19.522Z,8.63
2018-06-04T07:27:48.504Z,7.53
2018-06-04T07:30:19.080Z,7.10
2018-06-04T07:32:51.493Z,7.30
2018-06-04T07:35:21.932Z,7.13
2018-06-04T07:37:51.386Z,6.80
2018-06-04T07:40:21.258Z,6.57
2018-06-04T07:42:51.396Z,7.70
2018-06-04T07:45:21.960Z,6.27
2018-06-04T07:47:50.993Z,6.47
2018-06-04T07:50:23.526Z,7.03
2018-06-04T07:52:52.929Z,6.27
2018-06-04T07:55:21.642Z,6.23
2018-06-04T07:57:50.744Z,5.80
2018-06-04T08:00:21.942Z,6.60
2018-06-04T08:02:50.124Z,6.47
2018-06-04T08:05:19.071Z,6.47
2018-06-04T08:07:48.037Z,6.60
2018-06-04T08:10:16.219Z,6.00
2018-06-04T08:12:44.511Z,6.50
2018-06-04T08:15:14.215Z,6.70
2018-06-04T08:17:46.500Z,5.87
2018-06-04T08:20:16.866Z,5.57
2018-06-04T08:22:45.007Z,5.77
2018-06-04T08:25:15.571Z,5.93
2018-06-04T08:27:49.078Z,5.50
2018-06-04T08:30:21.903Z,6.30
2018-06-04T08:32:52.110Z,5.80
2018-06-04T08:35:25.110Z,5.83
2018-06-04T08:37:56.840Z,6.20
2018-06-04T08:40:27.377Z,4.60
2018-06-04T08:42:56.167Z,5.57
2018-06-04T08:45:25.056Z,4.83
2018-06-04T08:47:53.738Z,6.17
2018-06-04T08:50:21.996Z,5.03
2018-06-04T08:52:52.108Z,4.80
2018-06-04T08:55:20.224Z,5.77
2018-06-04T08:57:49.425Z,4.83
2018-06-04T09:00:17.742Z,5.30
2018-06-04T09:02:45.861Z,3.90
2018-06-04T09:05:13.984Z,5.03
2018-06-04T09:07:42.118Z,4.30
2018-06-04T09:10:10.229Z,4.03
2018-06-04T09:12:38.349Z,4.50
2018-06-04T09:15:07.684Z,4.93
2018-06-04T09:17:35.814Z,3.70
2018-06-04T09:20:03.944Z,4.80
2018-06-04T09:22:32.333Z,4.63
2018-06-04T09:25:01.245Z,3.77
2018-06-04T09:27:33.850Z,3.80
2018-06-04T09:30:02.020Z,4.30
2018-06-04T09:32:32.767Z,4.93
2018-06-04T09:35:00.957Z,3.83
2018-06-04T09:37:29.229Z,2.97
2018-06-04T09:40:00.256Z,4.63
2018-06-04T09:42:30.399Z,4.07
2018-06-04T09:44:58.670Z,9.97
2018-06-04T09:47:30.651Z,4.87
2018-06-04T09:50:03.355Z,3.40
2018-06-04T09:52:31.637Z,3.87
2018-06-04T09:55:02.267Z,4.00
2018-06-04T09:57:36.758Z,3.60
2018-06-04T10:00:07.747Z,3.20
2018-06-04T10:02:40.679Z,4.03
2018-06-04T10:05:10.446Z,3.00
2018-06-04T10:07:39.457Z,3.20
2018-06-04T10:10:07.794Z,4.20
2018-06-04T10:12:38.327Z,4.10
2018-06-04T10:15:09.245Z,3.73
2018-06-04T10:17:39.035Z,3.70
2018-06-04T10:20:09.025Z,4.37
2018-06-04T10:22:38.034Z,3.20
2018-06-04T10:25:09.249Z,4.23
2018-06-04T10:27:40.061Z,3.80
2018-06-04T10:30:09.688Z,3.57
2018-06-04T10:32:39.811Z,3.60
2018-06-04T10:35:08.308Z,4.50
2018-06-04T10:37:39.202Z,3.70
2018-06-04T10:40:09.018Z,3.43
2018-06-04T10:42:39.147Z,3.90
2018-06-04T10:45:09.458Z,3.33
2018-06-04T10:47:38.222Z,4.27
2018-06-04T10:50:08.675Z,3.20
2018-06-04T10:52:38.826Z,3.60
2018-06-04T10:55:12.242Z,3.77
2018-06-04T10:57:46.459Z,3.30
2018-06-04T11:00:18.829Z,2.97
2018-06-04T11:02:49.727Z,3.53
2018-06-04T11:05:26.113Z,2.90
2018-06-04T11:07:54.726Z,2.60
2018-06-04T11:10:23.981Z,2.30
2018-06-04T11:12:52.586Z,2.93
2018-06-04T11:15:23.097Z,2.17
2018-06-04T11:17:51.208Z,2.73
2018-06-04T11:20:21.377Z,3.27
2018-06-04T11:22:50.214Z,2.70
2018-06-04T11:25:19.353Z,2.93
2018-06-04T11:27:51.565Z,3.40
2018-06-04T11:30:30.543Z,3.40
2018-06-04T11:33:03.183Z,3.63
2018-06-04T11:35:40.438Z,3.40
2018-06-04T11:38:12.939Z,3.27
2018-06-04T11:40:50.008Z,2.80
2018-06-04T11:43:21.537Z,3.30
2018-06-04T11:45:54.218Z,3.63
2018-06-04T11:48:25.656Z,4.40
2018-06-04T11:50:54.906Z,2.60
2018-06-04T11:53:25.692Z,2.77
2018-06-04T11:55:53.917Z,2.80
2018-06-04T11:58:22.082Z,3.67
2018-06-04T12:00:50.536Z,3.20
2018-06-04T12:03:18.680Z,2.90
2018-06-04T12:05:48.540Z,2.13
2018-06-04T12:08:17.856Z,3.00
2018-06-04T12:10:46.797Z,2.80
2018-06-04T12:13:17.828Z,2.77
2018-06-04T12:15:48.543Z,3.10
2018-06-04T12:18:16.679Z,2.67
2018-06-04T12:20:48.318Z,3.30
2018-06-04T12:23:19.580Z,3.60
2018-06-04T12:25:49.676Z,3.17
2018-06-04T12:28:18.589Z,3.43
2018-06-04T12:30:48.722Z,3.47
2018-06-04T12:33:18.377Z,3.20
2018-06-04T12:35:47.844Z,3.30
2018-06-04T12:38:17.759Z,2.50
2018-06-04T12:40:48.063Z,2.93
2018-06-04T12:43:17.726Z,3.50
2018-06-04T12:45:46.553Z,3.47
2018-06-04T12:48:17.898Z,3.60
2018-06-04T12:50:51.263Z,3.37
2018-06-04T12:53:33.556Z,3.53
2018-06-04T12:56:05.360Z,3.40
2018-06-04T12:58:43.292Z,3.17
2018-06-04T13:01:13.631Z,4.40
2018-06-04T13:03:45.708Z,3.80
2018-06-04T13:06:26.530Z,3.53
2018-06-04T13:08:57.325Z,3.00
2018-06-04T13:11:26.424Z,2.83
2018-06-04T13:13:55.771Z,3.23
2018-06-04T13:16:24.898Z,3.50
2018-06-04T13:18:58.672Z,3.83
2018-06-04T13:21:34.639Z,3.53
2018-06-04T13:24:04.063Z,3.27
2018-06-04T13:27:32.072Z,3.23
2018-06-04T13:30:01.932Z,3.60
2018-06-04T13:32:31.036Z,2.80
2018-06-04T13:35:01.083Z,3.60
2018-06-04T13:37:29.227Z,3.70
2018-06-04T13:39:57.990Z,3.20
2018-06-04T13:42:30.865Z,3.10
2018-06-04T13:45:00.327Z,3.10
2018-06-04T13:47:32.251Z,2.53
2018-06-04T13:50:01.302Z,2.83
2018-06-04T13:52:32.646Z,3.43
2018-06-04T13:55:05.804Z,2.97
2018-06-04T13:57:36.697Z,2.70
2018-06-04T14:00:06.669Z,3.03
2018-06-04T14:02:34.861Z,3.03
2018-06-04T14:05:05.720Z,3.03
2018-06-04T14:07:41.180Z,3.23
2018-06-04T14:10:13.056Z,3.17
2018-06-04T14:12:43.810Z,3.57
2018-06-04T14:15:12.526Z,4.00
2018-06-04T14:17:41.819Z,2.83
2018-06-04T14:20:14.985Z,3.03
2018-06-04T14:22:43.089Z,3.30
2018-06-04T14:25:12.001Z,3.10
2018-06-04T14:27:44.502Z,3.20
2018-06-04T14:30:13.421Z,3.20
2018-06-04T14:32:44.877Z,3.00
2018-06-04T14:35:14.742Z,2.33
2018-06-04T14:37:45.306Z,3.20
2018-06-04T14:40:14.046Z,2.60
2018-06-04T14:42:43.932Z,3.53
2018-06-04T14:45:12.840Z,3.00
2018-06-04T14:47:41.088Z,2.90
2018-06-04T14:50:09.216Z,3.00
2018-06-04T14:52:38.181Z,2.90
2018-06-04T14:55:11.431Z,3.73
2018-06-04T14:57:39.715Z,3.43
2018-06-04T15:02:43.038Z,2.87
2018-06-04T15:05:11.158Z,2.57
2018-06-04T15:07:39.387Z,3.00
2018-06-04T15:10:08.220Z,2.87
2018-06-04T15:12:38.347Z,2.73
2018-06-04T15:15:06.506Z,2.87
2018-06-04T15:17:35.509Z,2.50
2018-06-04T15:20:03.674Z,2.60
2018-06-04T15:22:32.710Z,2.90
2018-06-04T15:25:00.879Z,2.77
2018-06-04T15:27:30.288Z,2.97
2018-06-04T15:29:59.304Z,3.00
2018-06-04T15:32:32.688Z,2.57
2018-06-04T15:35:00.882Z,2.67
2018-06-04T15:37:31.063Z,2.90
2018-06-04T15:39:59.903Z,2.80
2018-06-04T15:42:29.759Z,3.20
2018-06-04T15:45:00.147Z,3.10
2018-06-04T15:47:29.358Z,3.23
2018-06-04T15:49:58.311Z,2.63
2018-06-04T15:52:28.557Z,2.67
2018-06-04T15:55:00.149Z,3.10
2018-06-04T15:57:29.609Z,3.50
2018-06-04T15:59:59.735Z,3.90
2018-06-04T16:02:29.358Z,3.00
2018-06-04T16:04:57.708Z,3.70
2018-06-04T16:07:26.806Z,2.77
2018-06-04T16:09:58.084Z,4.30
2018-06-04T16:12:27.452Z,3.77
2018-06-04T16:14:57.424Z,3.03
2018-06-04T16:20:08.101Z,3.27
2018-06-04T16:22:38.422Z,3.90
2018-06-04T16:25:07.692Z,3.10
2018-06-04T16:27:39.074Z,3.47
2018-06-04T16:30:13.344Z,3.30
2018-06-04T16:32:43.701Z,3.20
2018-06-04T16:35:18.102Z,3.87
2018-06-04T16:37:48.580Z,3.30
2018-06-04T16:43:23.454Z,2.70
2018-06-04T16:45:52.182Z,3.60
2018-06-04T16:48:20.314Z,3.60
2018-06-04T16:50:57.418Z,2.90
2018-06-04T16:53:26.096Z,3.13
2018-06-04T16:55:56.489Z,3.73
2018-06-04T16:58:29.596Z,3.50
2018-06-04T17:01:01.943Z,3.30
2018-06-04T17:03:34.733Z,3.70
2018-06-04T17:06:05.017Z,3.53
2018-06-04T17:08:34.701Z,3.30
2018-06-04T17:11:02.850Z,3.77
2018-06-04T17:13:32.490Z,4.70
2018-06-04T17:16:01.466Z,4.07
2018-06-04T17:18:30.080Z,4.00
2018-06-04T17:20:58.210Z,3.40
2018-06-04T17:23:26.308Z,3.20
2018-06-04T17:25:54.804Z,3.57
2018-06-04T17:28:24.562Z,3.57
2018-06-04T17:30:52.690Z,3.10
2018-06-04T17:33:21.676Z,3.40
2018-06-04T17:35:50.065Z,4.10
2018-06-04T17:38:19.012Z,3.17
2018-06-04T17:40:47.434Z,3.20
2018-06-04T17:43:16.418Z,4.10
2018-06-04T17:45:45.421Z,3.83
2018-06-04T17:48:15.046Z,4.10
2018-06-04T17:50:44.448Z,3.20
2018-06-04T17:53:16.743Z,3.60
2018-06-04T17:55:45.726Z,4.23
2018-06-04T17:58:14.694Z,3.80
2018-06-04T18:00:43.765Z,4.60
2018-06-04T18:03:14.628Z,3.93
2018-06-04T18:05:43.656Z,4.50
2018-06-04T18:08:12.827Z,4.60
2018-06-04T18:10:44.270Z,4.80
2018-06-04T18:13:13.133Z,4.53
2018-06-04T18:15:42.224Z,4.90
2018-06-04T18:18:11.205Z,3.80
2018-06-04T18:20:39.620Z,5.23
2018-06-04T18:23:08.605Z,5.10
2018-06-04T18:25:39.786Z,4.87
2018-06-04T18:28:07.926Z,4.33
2018-06-04T18:30:38.133Z,4.70
2018-06-04T18:33:06.362Z,4.30
2018-06-04T18:35:36.182Z,4.13
2018-06-04T18:38:04.287Z,4.67
2018-06-04T18:40:33.378Z,4.27
2018-06-04T18:43:02.496Z,4.43
2018-06-04T18:45:31.386Z,6.33
2018-06-04T18:47:59.517Z,4.23
2018-06-04T18:50:27.862Z,4.40
2018-06-04T18:52:55.971Z,4.37
2018-06-04T18:55:26.593Z,4.03
2018-06-04T18:57:54.705Z,4.40
2018-06-04T19:00:24.109Z,4.40
2018-06-04T19:02:54.705Z,4.37
2018-06-04T19:05:23.028Z,4.87
2018-06-04T19:07:52.025Z,4.10
2018-06-04T19:10:22.236Z,4.50
2018-06-04T19:12:50.611Z,4.53
2018-06-04T19:15:19.505Z,4.60
2018-06-04T19:17:48.398Z,4.07
2018-06-04T19:20:17.320Z,4.50
2018-06-04T19:22:45.455Z,4.90
2018-06-04T19:25:15.024Z,4.47
2018-06-04T19:27:43.166Z,5.20
2018-06-04T19:30:12.843Z,5.13
2018-06-04T19:32:42.084Z,4.53
2018-06-04T19:35:10.942Z,4.33
2018-06-04T19:37:39.930Z,4.93
2018-06-04T19:40:08.830Z,6.60
2018-06-04T19:42:37.611Z,4.70
2018-06-04T19:45:09.452Z,5.20
2018-06-04T19:47:38.287Z,5.73
2018-06-04T19:50:06.413Z,4.37
2018-06-04T19:52:34.637Z,5.17
2018-06-04T19:55:02.750Z,5.43
2018-06-04T19:57:30.864Z,4.90
2018-06-04T19:59:59.781Z,5.70
2018-06-04T20:02:29.163Z,5.97
2018-06-04T20:04:57.314Z,5.40
2018-06-04T20:07:36.939Z,5.47
2018-06-04T20:10:07.769Z,5.33
2018-06-04T20:12:35.916Z,5.40
2018-06-04T20:15:04.230Z,5.07
2018-06-04T20:17:33.093Z,5.40
2018-06-04T20:20:03.232Z,5.80
2018-06-04T20:22:32.634Z,6.33
2018-06-04T20:25:02.091Z,5.20
2018-06-04T20:27:31.006Z,5.83
2018-06-04T20:30:01.092Z,6.07
2018-06-04T20:32:38.627Z,5.30
2018-06-04T20:35:07.969Z,6.67
2018-06-04T20:37:38.875Z,6.33
2018-06-04T20:40:10.635Z,5.60
2018-06-04T20:42:38.782Z,5.50
2018-06-04T20:45:08.666Z,7.53
2018-06-04T20:47:37.414Z,6.13
2018-06-04T20:50:06.256Z,5.30
2018-06-04T20:52:35.179Z,6.40
2018-06-04T20:55:03.630Z,5.10
2018-06-04T20:57:32.090Z,6.05
2018-06-04T21:00:05.918Z,5.05
2018-06-04T21:02:35.563Z,5.60
2018-06-04T21:05:03.692Z,5.20
2018-06-04T21:07:31.956Z,6.18
2018-06-04T21:12:38.480Z,5.60
2018-06-04T21:15:08.134Z,5.50
2018-06-04T21:17:38.805Z,6.03
2018-06-04T21:20:10.017Z,6.40
2018-06-04T21:22:43.461Z,6.50
2018-06-04T21:25:13.713Z,6.25
2018-06-04T21:27:43.302Z,5.97
2018-06-04T21:30:13.001Z,5.82
2018-06-04T21:32:42.049Z,5.95
2018-06-04T21:35:10.632Z,6.00
2018-06-04T21:37:45.099Z,6.07
2018-06-04T21:40:13.651Z,6.12
2018-06-04T21:42:42.951Z,6.10
2018-06-04T21:45:13.312Z,5.80
2018-06-04T21:47:44.105Z,5.82
2018-06-04T21:50:16.623Z,6.75
2018-06-04T21:52:46.159Z,6.75
2018-06-04T21:55:15.395Z,6.35
2018-06-04T21:57:44.480Z,7.03
2018-06-04T22:00:12.637Z,6.50
2018-06-04T22:02:41.825Z,7.68
2018-06-04T22:05:10.789Z,6.00
2018-06-04T22:07:40.395Z,6.05
2018-06-04T22:10:11.003Z,7.18
2018-06-04T22:12:40.611Z,7.20
2018-06-04T22:15:10.352Z,7.78
2018-06-04T22:17:38.591Z,7.53
2018-06-04T22:20:07.773Z,6.65
2018-06-04T22:22:37.236Z,6.10
2018-06-04T22:25:05.449Z,6.30
2018-06-04T22:27:36.883Z,6.40
2018-06-04T22:30:05.108Z,6.40
2018-06-04T22:32:34.156Z,7.03
2018-06-04T22:35:02.287Z,7.30
2018-06-04T22:37:31.543Z,7.50
2018-06-04T22:39:59.749Z,6.87
2018-06-04T22:42:28.367Z,7.78
2018-06-04T22:44:56.764Z,6.90
2018-06-04T22:47:25.329Z,6.50
2018-06-04T22:49:53.817Z,6.60
2018-06-04T22:52:22.089Z,6.32
2018-06-04T22:54:50.266Z,6.50
2018-06-04T22:57:19.241Z,7.80
2018-06-04T22:59:47.386Z,7.50
2018-06-04T23:02:16.742Z,7.97
2018-06-04T23:04:45.548Z,7.10
2018-06-04T23:07:13.707Z,6.68
2018-06-04T23:09:43.438Z,7.53
2018-06-04T23:12:12.179Z,6.57
2018-06-04T23:14:41.473Z,6.85
2018-06-04T23:17:11.896Z,7.85
2018-06-04T23:19:40.774Z,7.47
2018-06-04T23:22:12.003Z,8.27
2018-06-04T23:24:44.518Z,7.28
2018-06-04T23:27:15.033Z,7.15
2018-06-04T23:29:43.142Z,7.03
2018-06-04T23:32:12.489Z,7.75
2018-06-04T23:34:40.640Z,8.38
2018-06-04T23:37:11.654Z,6.93
2018-06-04T23:39:40.764Z,8.65
2018-06-04T23:42:10.202Z,7.10
2018-06-04T23:44:39.092Z,8.48
2018-06-04T23:47:11.672Z,8.10
2018-06-04T23:49:39.828Z,8.60
2018-06-04T23:52:08.553Z,7.80
2018-06-04T23:54:38.988Z,7.53
2018-06-04T23:57:07.290Z,7.50
2018-06-04T23:59:36.204Z,6.85
